Flight Track Log - Related Links

Times and Time Zones

All times are in EDT time to prevent confusion due to time zone crossing. See the PAL431 flight status page for this flight to view local times or setup timezone preferences in your user account.

Time Position Orientation Groundspeed Altitude Reporting Facility
EDT Latitude Longitude Course Direction KTS MPH feet Rate Location/Type
Thu 09:02:22 PM 35.7320 140.3990 150° Southeast 183 211 1,400  Level FlightAware ADS-B
Thu 09:02:32 PM 35.7240 140.4040 153° Southeast 184 212 1,900 2,850 Climbing FlightAware ADS-B
Thu 09:03:02 PM 35.7010 140.4210 149° Southeast 183 211 3,300 2,000 Climbing FlightAware ADS-B
Thu 09:03:32 PM 35.6800 140.4370 148° Southeast 219 252 3,900 1,200 Climbing FlightAware ADS-B
Thu 09:03:57 PM 35.6530 140.4550 152° Southeast 264 304 4,400 2,182 Climbing FlightAware ADS-B
Thu 09:04:27 PM 35.6220 140.4790 148° Southeast 270 311 5,900 2,500 Climbing FlightAware ADS-B
Thu 09:04:57 PM 35.5890 140.5020 150° Southeast 279 321 6,900 1,457 Climbing FlightAware ADS-B
Thu 09:05:37 PM 35.5440 140.5360 148° Southeast 284 327 7,600 1,320 Climbing FlightAware ADS-B
Thu 09:05:47 PM 35.5380 140.5450 129° Southeast 288 331 8,000 3,000 Climbing FlightAware ADS-B
Thu 09:06:07 PM 35.5220 140.5790 120° Southeast 294 338 9,100 2,700 Climbing FlightAware ADS-B
Thu 09:06:47 PM 35.5000 140.6360 115° Southeast 315 362 10,700 1,835 Climbing FlightAware ADS-B
Thu 09:07:32 PM 35.4680 140.7200 115° Southeast 377 434 11,700 2,259 Climbing FlightAware ADS-B
Thu 09:08:12 PM 35.4370 140.8000 115° Southeast 403 464 13,900 3,150 Climbing FlightAware ADS-B
Thu 09:08:52 PM 35.4020 140.8870 116° Southeast 422 486 15,900 2,914 Climbing FlightAware ADS-B
Thu 09:09:22 PM 35.3630 140.9380 133° Southeast 430 495 17,300 2,667 Climbing FlightAware ADS-B
Thu 09:10:22 PM 35.2610 140.9470 176° South 430 495 19,900 2,824 Climbing FlightAware ADS-B
Thu 09:10:47 PM 35.2060 140.9250 198° South 430 495 21,300 2,677 Climbing FlightAware ADS-B
Thu 09:11:27 PM 35.1340 140.8980 197° South 448 516 22,800 2,925 Climbing FlightAware ADS-B
Thu 09:12:07 PM 35.0480 140.8670 196° South 437 503 25,200 2,894 Climbing FlightAware ADS-B
Thu 09:12:52 PM 34.9550 140.8330 197° South 458 527 26,900 1,906 Climbing FlightAware ADS-B
Thu 09:13:32 PM 34.8740 140.8020 197° South 471 542 27,900 1,835 Climbing FlightAware ADS-B
Thu 09:14:17 PM 34.7750 140.7660 197° South 490 564 29,500 2,047 Climbing FlightAware ADS-B
Thu 09:14:57 PM 34.6890 140.7340 197° South 500 575 30,800 1,976 Climbing FlightAware ADS-B
Thu 09:15:42 PM 34.5860 140.6960 197° South 508 585 32,300 1,835 Climbing FlightAware ADS-B
Thu 09:16:22 PM 34.4970 140.6600 198° South 500 575 33,400 1,800 Climbing FlightAware ADS-B
Thu 09:17:02 PM 34.4320 140.6020 216° Southwest 489 563 34,700 2,188 Climbing FlightAware ADS-B
Thu 09:17:47 PM 34.3610 140.5090 227° Southwest 470 541 36,500 1,976 Climbing FlightAware ADS-B
Thu 09:18:27 PM 34.3050 140.4310 229° Southwest 467 537 37,500 1,125 Climbing FlightAware ADS-B
Thu 09:19:07 PM 34.2460 140.3480 229° Southwest 464 534 38,000 400 Climbing FlightAware ADS-B
Thu 09:19:42 PM 34.1980 140.2820 229° Southwest 464 534 38,000  Level FlightAware ADS-B
Thu 09:20:27 PM 34.1380 140.1990 229° Southwest 464 534 38,000  Level FlightAware ADS-B
Thu 09:21:12 PM 34.0740 140.1110 229° Southwest 464 534 38,000  Level FlightAware ADS-B
Thu 09:21:57 PM 34.0110 140.0250 229° Southwest 463 533 38,000  Level FlightAware ADS-B
Thu 09:22:52 PM 33.9350 139.9200 229° Southwest 462 532 38,000  Level FlightAware ADS-B
Thu 09:23:32 PM 33.8750 139.8390 228° Southwest 463 533 38,000  Level FlightAware ADS-B
Thu 09:24:17 PM 33.8080 139.7470 229° Southwest 464 534 38,000  Level FlightAware ADS-B
Thu 09:24:52 PM 33.7650 139.6900 228° Southwest 464 534 38,000  Level FlightAware ADS-B
Thu 09:25:37 PM 33.6990 139.5990 229° Southwest 466 536 38,000  Level FlightAware ADS-B
Thu 09:26:22 PM 33.6290 139.5050 228° Southwest 465 535 38,000  Level FlightAware ADS-B
Thu 09:27:02 PM 33.5740 139.4310 228° Southwest 465 535 38,000  Level FlightAware ADS-B
Thu 09:28:12 PM 33.4710 139.2930 228° Southwest 462 532 38,000  Level FlightAware ADS-B
Thu 09:29:12 PM 33.3900 139.1840 228° Southwest 463 533 38,000  Level FlightAware ADS-B
Thu 09:29:52 PM 33.3350 139.1100 228° Southwest 463 533 38,000  Level FlightAware ADS-B
Thu 09:30:32 PM 33.2830 139.0410 228° Southwest 464 534 38,000  Level FlightAware ADS-B
Thu 09:31:17 PM 33.2130 138.9480 228° Southwest 465 535 38,000  Level FlightAware ADS-B
Thu 09:32:12 PM 33.1310 138.8390 228° Southwest 461 531 38,000  Level FlightAware ADS-B
Thu 09:33:02 PM 33.0670 138.7540 228° Southwest 462 532 38,000  Level FlightAware ADS-B
Thu 09:33:47 PM 32.9930 138.6560 228° Southwest 459 528 38,000  Level FlightAware ADS-B
Thu 09:34:32 PM 32.9270 138.5700 228° Southwest 460 529 38,000  Level FlightAware ADS-B
Thu 09:35:27 PM 32.8620 138.4840 228° Southwest 459 528 38,000  Level FlightAware ADS-B
Thu 09:36:02 PM 32.8010 138.4050 227° Southwest 458 527 38,000  Level FlightAware ADS-B
Thu 09:36:57 PM 32.7180 138.2960 228° Southwest 457 526 38,000  Level FlightAware ADS-B
Thu 09:38:02 PM 32.6250 138.1740 228° Southwest 459 528 38,000  Level FlightAware ADS-B
Thu 09:38:42 PM 32.5680 138.1000 228° Southwest 459 528 38,000  Level FlightAware ADS-B
Thu 09:39:27 PM 32.5060 138.0190 228° Southwest 458 527 38,000  Level FlightAware ADS-B
Thu 09:40:22 PM 32.4250 137.9150 227° Southwest 459 528 38,000  Level FlightAware ADS-B
Thu 09:40:57 PM 32.3790 137.8540 228° Southwest 459 528 38,000  Level FlightAware ADS-B
Thu 09:41:37 PM 32.3300 137.7910 227° Southwest 459 528 38,000  Level FlightAware ADS-B
Thu 09:42:42 PM 32.2190 137.6500 227° Southwest 460 529 38,000  Level FlightAware ADS-B
Thu 09:43:27 PM 32.1590 137.5720 228° Southwest 461 531 38,000  Level FlightAware ADS-B
Thu 09:44:07 PM 32.1110 137.5080 228° Southwest 461 531 38,000  Level FlightAware ADS-B
Thu 09:44:47 PM 32.0620 137.4450 227° Southwest 461 531 38,000  Level FlightAware ADS-B
Thu 09:45:27 PM 31.9810 137.3460 226° Southwest 453 521 38,000  Level FlightAware ADS-B
Thu 09:46:12 PM 31.9210 137.2690 227° Southwest 456 525 38,000  Level FlightAware ADS-B
Thu 09:46:57 PM 31.8630 137.1970 227° Southwest 456 525 38,000  Level FlightAware ADS-B
Thu 09:47:37 PM 31.8140 137.1350 227° Southwest 456 525 38,000  Level FlightAware ADS-B
Thu 09:48:17 PM 31.7660 137.0730 228° Southwest 456 525 38,000  Level FlightAware ADS-B
Thu 09:48:57 PM 31.7170 137.0120 227° Southwest 456 525 38,000  Level FlightAware ADS-B
Thu 09:49:47 PM 31.6550 136.9350 227° Southwest 456 525 38,000  Level FlightAware ADS-B
Thu 09:50:27 PM 31.6070 136.8730 228° Southwest 456 525 38,000  Level FlightAware ADS-B
Thu 09:51:07 PM 31.5580 136.8110 227° Southwest 456 525 38,000  Level FlightAware ADS-B
Thu 09:51:47 PM 31.5090 136.7500 227° Southwest 456 525 38,000  Level FlightAware ADS-B
Thu 09:52:27 PM 31.4600 136.6880 227° Southwest 456 525 38,000  Level FlightAware ADS-B
Thu 09:53:07 PM 31.4110 136.6270 227° Southwest 456 525 38,000  Level FlightAware ADS-B
Thu 09:53:57 PM 31.3500 136.5500 227° Southwest 456 525 38,000  Level FlightAware ADS-B
Thu 09:54:37 PM 31.3010 136.4890 227° Southwest 456 525 38,000  Level FlightAware ADS-B
Thu 09:55:17 PM 31.2520 136.4270 227° Southwest 456 525 38,000  Level FlightAware ADS-B
Thu 09:55:57 PM 31.2030 136.3660 227° Southwest 456 525 38,000  Level FlightAware ADS-B
Thu 09:58:00 PM 31.0519 136.1984 224° Southwest  Level Estimated
Thu 09:59:00 PM 30.9782 136.1168 223° Southwest  Level Estimated
Thu 10:00:00 PM 30.9043 136.0354 223° Southwest  Level Estimated
Thu 10:01:00 PM 30.8305 135.9541 223° Southwest  Level Estimated
Thu 10:02:00 PM 30.7565 135.8729 223° Southwest  Level Estimated
Thu 10:03:00 PM 30.6826 135.7918 223° Southwest  Level Estimated
Thu 10:04:00 PM 30.6085 135.7109 223° Southwest  Level Estimated
Thu 10:05:00 PM 30.5344 135.6301 223° Southwest  Level Estimated
Thu 10:06:00 PM 30.4603 135.5494 223° Southwest  Level Estimated
Thu 10:07:00 PM 30.3861 135.4688 223° Southwest  Level Estimated
Thu 10:08:00 PM 30.3119 135.3884 223° Southwest  Level Estimated
Thu 10:09:00 PM 30.2376 135.3080 223° Southwest  Level Estimated
Thu 10:10:00 PM 30.1633 135.2278 223° Southwest  Level Estimated
Thu 10:11:00 PM 30.0889 135.1478 223° Southwest  Level Estimated
Thu 10:12:00 PM 30.0145 135.0678 223° Southwest  Level Estimated
Thu 10:13:00 PM 29.9400 134.9879 223° Southwest  Level Estimated
Thu 10:14:00 PM 29.8655 134.9082 223° Southwest  Level Estimated
Thu 10:15:00 PM 29.7910 134.8286 223° Southwest  Level Estimated
Thu 10:16:00 PM 29.7163 134.7491 223° Southwest  Level Estimated
Thu 10:17:00 PM 29.6417 134.6698 223° Southwest  Level Estimated
Thu 10:18:00 PM 29.5670 134.5905 223° Southwest  Level Estimated
Thu 10:19:00 PM 29.4922 134.5114 223° Southwest  Level Estimated
Thu 10:20:00 PM 29.4174 134.4324 223° Southwest  Level Estimated
Thu 10:21:00 PM 29.3426 134.3535 223° Southwest  Level Estimated
Thu 10:22:00 PM 29.2677 134.2747 223° Southwest  Level Estimated
Thu 10:23:00 PM 29.1927 134.1960 223° Southwest  Level Estimated
Thu 10:24:00 PM 29.1178 134.1175 222° Southwest  Level Estimated
Thu 10:25:00 PM 29.0427 134.0390 222° Southwest  Level Estimated
Thu 10:26:00 PM 28.9676 133.9607 222° Southwest  Level Estimated
Thu 10:27:00 PM 28.8925 133.8825 222° Southwest  Level Estimated
Thu 10:28:00 PM 28.8174 133.8044 222° Southwest  Level Estimated
Thu 10:29:00 PM 28.7421 133.7264 222° Southwest  Level Estimated
Thu 10:30:00 PM 28.6669 133.6485 222° Southwest  Level Estimated
Thu 10:31:00 PM 28.5916 133.5708 222° Southwest  Level Estimated
Thu 10:32:00 PM 28.5162 133.4931 222° Southwest  Level Estimated
Thu 10:33:00 PM 28.4408 133.4156 222° Southwest  Level Estimated
Thu 10:34:00 PM 28.3654 133.3382 222° Southwest  Level Estimated
Thu 10:35:00 PM 28.2899 133.2608 222° Southwest  Level Estimated
Thu 10:36:00 PM 28.2144 133.1836 222° Southwest  Level Estimated
Thu 10:37:00 PM 28.1388 133.1065 222° Southwest  Level Estimated
Thu 10:38:00 PM 28.0632 133.0295 222° Southwest  Level Estimated
Thu 10:39:00 PM 27.9876 132.9527 222° Southwest  Level Estimated
Thu 10:40:00 PM 27.9119 132.8759 222° Southwest  Level Estimated
Thu 10:41:00 PM 27.8362 132.7992 222° Southwest  Level Estimated
Thu 10:42:00 PM 27.7604 132.7226 222° Southwest  Level Estimated
Thu 10:43:00 PM 27.6846 132.6462 222° Southwest  Level Estimated
Thu 10:44:00 PM 27.6087 132.5698 222° Southwest  Level Estimated
Thu 10:45:00 PM 27.5328 132.4936 222° Southwest  Level Estimated
Thu 10:46:00 PM 27.4569 132.4175 222° Southwest  Level Estimated
Thu 10:47:00 PM 27.3809 132.3414 222° Southwest  Level Estimated
Thu 10:48:00 PM 27.3048 132.2655 222° Southwest  Level Estimated
Thu 10:49:00 PM 27.2288 132.1897 222° Southwest  Level Estimated
Thu 10:50:00 PM 27.1527 132.1140 222° Southwest  Level Estimated
Thu 10:51:00 PM 27.0765 132.0383 221° Southwest  Level Estimated
Thu 10:52:00 PM 27.0003 131.9628 221° Southwest  Level Estimated
Thu 10:53:00 PM 26.9241 131.8874 221° Southwest  Level Estimated
Thu 10:54:00 PM 26.8478 131.8121 221° Southwest  Level Estimated
Thu 10:55:00 PM 26.7715 131.7369 221° Southwest  Level Estimated
Thu 10:56:00 PM 26.6952 131.6618 221° Southwest  Level Estimated
Thu 10:57:00 PM 26.6188 131.5868 221° Southwest  Level Estimated
Thu 10:58:00 PM 26.5423 131.5119 221° Southwest  Level Estimated
Thu 10:59:00 PM 26.4659 131.4371 221° Southwest  Level Estimated
Thu 11:00:00 PM 26.3894 131.3623 221° Southwest  Level Estimated
Thu 11:01:00 PM 26.3128 131.2877 221° Southwest  Level Estimated
Thu 11:02:00 PM 26.2362 131.2132 221° Southwest  Level Estimated
Thu 11:03:00 PM 26.1596 131.1388 221° Southwest  Level Estimated
Thu 11:04:00 PM 26.0829 131.0645 221° Southwest  Level Estimated
Thu 11:05:00 PM 26.0062 130.9903 221° Southwest  Level Estimated
Thu 11:06:00 PM 25.9295 130.9162 221° Southwest  Level Estimated
Thu 11:07:00 PM 25.8527 130.8421 221° Southwest  Level Estimated
Thu 11:08:00 PM 25.7759 130.7682 221° Southwest  Level Estimated
Thu 11:09:00 PM 25.6991 130.6944 221° Southwest  Level Estimated
Thu 11:10:00 PM 25.6222 130.6206 221° Southwest  Level Estimated
Thu 11:11:00 PM 25.5453 130.5470 221° Southwest  Level Estimated
Thu 11:12:00 PM 25.4683 130.4734 221° Southwest  Level Estimated
Thu 11:13:00 PM 25.3913 130.4000 221° Southwest  Level Estimated
Thu 11:14:00 PM 25.3143 130.3266 221° Southwest  Level Estimated
Thu 11:15:00 PM 25.2372 130.2534 221° Southwest  Level Estimated
Thu 11:16:00 PM 25.1601 130.1802 221° Southwest  Level Estimated
Thu 11:17:00 PM 25.0830 130.1071 221° Southwest  Level Estimated
Thu 11:18:00 PM 25.0058 130.0341 221° Southwest  Level Estimated
Thu 11:19:00 PM 24.9286 129.9612 221° Southwest  Level Estimated
Thu 11:20:00 PM 24.8513 129.8884 221° Southwest  Level Estimated
Thu 11:21:00 PM 24.7740 129.8157 221° Southwest  Level Estimated
Thu 11:22:00 PM 24.6967 129.7431 220° Southwest  Level Estimated
Thu 11:23:00 PM 24.6194 129.6705 220° Southwest  Level Estimated
Thu 11:24:00 PM 24.5420 129.5981 220° Southwest  Level Estimated
Thu 11:25:00 PM 24.4646 129.5257 220° Southwest  Level Estimated
Thu 11:26:00 PM 24.3871 129.4534 220° Southwest  Level Estimated
Thu 11:27:00 PM 24.3096 129.3813 220° Southwest  Level Estimated
Thu 11:28:00 PM 24.2321 129.3092 220° Southwest  Level Estimated
Thu 11:29:00 PM 24.1545 129.2372 220° Southwest  Level Estimated
Thu 11:30:00 PM 24.0769 129.1653 220° Southwest  Level Estimated
Thu 11:31:00 PM 23.9993 129.0934 220° Southwest  Level Estimated
Thu 11:32:00 PM 23.9216 129.0217 220° Southwest  Level Estimated
Thu 11:33:00 PM 23.8439 128.9500 220° Southwest  Level Estimated
Thu 11:34:00 PM 23.7662 128.8784 220° Southwest  Level Estimated
Thu 11:35:00 PM 23.6884 128.8070 220° Southwest  Level Estimated
Thu 11:36:00 PM 23.6107 128.7356 220° Southwest  Level Estimated
Thu 11:37:00 PM 23.5328 128.6643 220° Southwest  Level Estimated
Thu 11:38:00 PM 23.4550 128.5930 220° Southwest  Level Estimated
Thu 11:39:00 PM 23.3771 128.5219 220° Southwest  Level Estimated
Thu 11:40:00 PM 23.2992 128.4508 220° Southwest  Level Estimated
Thu 11:41:00 PM 23.2212 128.3798 220° Southwest  Level Estimated
Thu 11:42:00 PM 23.1432 128.3089 220° Southwest  Level Estimated
Thu 11:43:00 PM 23.0652 128.2381 220° Southwest  Level Estimated
Thu 11:44:00 PM 22.9872 128.1674 220° Southwest  Level Estimated
Thu 11:45:00 PM 22.9091 128.0968 220° Southwest  Level Estimated
Thu 11:46:00 PM 22.8310 128.0262 220° Southwest  Level Estimated
Thu 11:47:00 PM 22.7528 127.9557 220° Southwest  Level Estimated
Thu 11:48:00 PM 22.6747 127.8853 220° Southwest  Level Estimated
Thu 11:49:00 PM 22.5965 127.8149 220° Southwest  Level Estimated
Thu 11:50:00 PM 22.5182 127.7447 220° Southwest  Level Estimated
Thu 11:51:00 PM 22.4400 127.6745 220° Southwest  Level Estimated
Thu 11:52:00 PM 22.3617 127.6044 220° Southwest  Level Estimated
Thu 11:53:00 PM 22.2833 127.5344 220° Southwest  Level Estimated
Thu 11:54:00 PM 22.2050 127.4645 220° Southwest  Level Estimated
Thu 11:55:00 PM 22.1266 127.3947 220° Southwest  Level Estimated
Thu 11:56:00 PM 22.0482 127.3249 220° Southwest  Level Estimated
Thu 11:57:00 PM 21.9697 127.2552 219° Southwest  Level Estimated
Thu 11:58:00 PM 21.8913 127.1855 219° Southwest  Level Estimated
Thu 11:59:00 PM 21.8128 127.1160 219° Southwest  Level Estimated
Fri 12:00:00 AM 21.7342 127.0465 219° Southwest  Level Estimated
Fri 12:01:00 AM 21.6557 126.9771 219° Southwest  Level Estimated
Fri 12:02:00 AM 21.5771 126.9078 219° Southwest  Level Estimated
Fri 12:03:00 AM 21.4985 126.8386 219° Southwest  Level Estimated
Fri 12:04:00 AM 21.4198 126.7694 219° Southwest  Level Estimated
Fri 12:05:00 AM 21.3412 126.7003 219° Southwest  Level Estimated
Fri 12:06:00 AM 21.2624 126.6313 219° Southwest  Level Estimated
Fri 12:07:00 AM 21.1837 126.5624 219° Southwest  Level Estimated
Fri 12:08:00 AM 21.1050 126.4935 219° Southwest  Level Estimated
Fri 12:09:00 AM 21.0262 126.4247 219° Southwest  Level Estimated
Fri 12:10:00 AM 20.9474 126.3560 219° Southwest  Level Estimated
Fri 12:11:00 AM 20.8685 126.2873 219° Southwest  Level Estimated
Fri 12:12:00 AM 20.7896 126.2187 219° Southwest  Level Estimated
Fri 12:13:00 AM 20.7108 126.1502 219° Southwest  Level Estimated
Fri 12:14:00 AM 20.6318 126.0818 219° Southwest  Level Estimated
Fri 12:15:00 AM 20.5529 126.0134 219° Southwest  Level Estimated
Fri 12:16:00 AM 20.4739 125.9451 219° Southwest  Level Estimated
Fri 12:17:00 AM 20.3949 125.8769 219° Southwest  Level Estimated
Fri 12:18:00 AM 20.3159 125.8087 219° Southwest  Level Estimated
Fri 12:19:00 AM 20.2368 125.7406 219° Southwest  Level Estimated
Fri 12:20:00 AM 20.1577 125.6726 219° Southwest  Level Estimated
Fri 12:21:00 AM 20.0786 125.6047 219° Southwest  Level Estimated
Fri 12:22:00 AM 19.9995 125.5368 219° Southwest  Level Estimated
Fri 12:23:00 AM 19.9203 125.4690 219° Southwest  Level Estimated
Fri 12:24:00 AM 19.8411 125.4012 219° Southwest  Level Estimated
Fri 12:25:00 AM 19.7619 125.3336 219° Southwest  Level Estimated
Fri 12:26:00 AM 19.6827 125.2660 219° Southwest  Level Estimated
Fri 12:27:00 AM 19.6034 125.1984 219° Southwest  Level Estimated
Fri 12:28:00 AM 19.5241 125.1309 219° Southwest  Level Estimated
Fri 12:29:00 AM 19.4448 125.0635 219° Southwest  Level Estimated
Fri 12:30:00 AM 19.3655 124.9962 219° Southwest  Level Estimated
Fri 12:31:00 AM 19.2861 124.9289 219° Southwest  Level Estimated
Fri 12:32:00 AM 19.2067 124.8617 219° Southwest  Level Estimated
Fri 12:33:00 AM 19.1273 124.7945 219° Southwest  Level Estimated
Fri 12:34:00 AM 19.0479 124.7275 219° Southwest  Level Estimated
Fri 12:35:00 AM 18.9684 124.6604 219° Southwest  Level Estimated
Fri 12:36:00 AM 18.8889 124.5935 219° Southwest  Level Estimated
Fri 12:37:00 AM 18.8094 124.5266 219° Southwest  Level Estimated
Fri 12:38:00 AM 18.7299 124.4598 219° Southwest  Level Estimated
Fri 12:39:00 AM 18.6503 124.3930 218° Southwest  Level Estimated
Fri 12:40:00 AM 18.5708 124.3263 218° Southwest  Level Estimated
Fri 12:41:00 AM 18.4912 124.2597 218° Southwest  Level Estimated
Fri 12:42:00 AM 18.4115 124.1931 218° Southwest  Level Estimated
Fri 12:43:00 AM 18.3319 124.1265 218° Southwest  Level Estimated
Fri 12:44:00 AM 18.2522 124.0601 218° Southwest  Level Estimated
Fri 12:45:00 AM 18.1725 123.9937 218° Southwest  Level Estimated
Fri 12:46:00 AM 18.0928 123.9274 218° Southwest  Level Estimated
Fri 12:47:00 AM 18.0131 123.8611 218° Southwest  Level Estimated
Fri 12:48:00 AM 17.9333 123.7949 218° Southwest  Level Estimated
Fri 12:49:00 AM 17.8535 123.7287 218° Southwest  Level Estimated
Fri 12:50:00 AM 17.7737 123.6626 218° Southwest  Level Estimated
Fri 12:51:00 AM 17.6939 123.5966 218° Southwest  Level Estimated
Fri 12:52:00 AM 17.6140 123.5306 218° Southwest  Level Estimated
Fri 12:53:00 AM 17.5341 123.4647 218° Southwest  Level Estimated
Fri 12:54:00 AM 17.4542 123.3988 218° Southwest  Level Estimated
Fri 12:55:00 AM 17.3743 123.3330 218° Southwest  Level Estimated
Fri 12:56:00 AM 17.2944 123.2673 218° Southwest  Level Estimated
Fri 12:57:00 AM 17.2144 123.2016 218° Southwest  Level Estimated
Fri 12:58:00 AM 17.1344 123.1360 218° Southwest  Level Estimated
Fri 12:59:00 AM 17.0544 123.0704 218° Southwest  Level Estimated
Fri 01:00:00 AM 16.9744 123.0049 218° Southwest  Level Estimated
Fri 01:01:00 AM 16.8944 122.9394 218° Southwest  Level Estimated
Fri 01:02:00 AM 16.8143 122.8740 218° Southwest  Level Estimated
Fri 01:03:00 AM 16.7342 122.8086 218° Southwest  Level Estimated
Fri 01:04:00 AM 16.6541 122.7433 218° Southwest  Level Estimated
Fri 01:05:00 AM 16.5740 122.6781 218° Southwest  Level Estimated
Fri 01:06:00 AM 16.4938 122.6129 218° Southwest  Level Estimated
Fri 01:07:00 AM 16.4137 122.5478 218° Southwest  Level Estimated
Fri 01:08:00 AM 16.3335 122.4827 218° Southwest  Level Estimated
Fri 01:09:00 AM 16.2533 122.4177 218° Southwest  Level Estimated
Fri 01:10:00 AM 16.1730 122.3527 218° Southwest  Level Estimated
Fri 01:11:00 AM 16.0928 122.2878 218° Southwest  Level Estimated
Fri 01:12:00 AM 16.0125 122.2229 218° Southwest  Level Estimated
Fri 01:13:00 AM 15.9322 122.1581 218° Southwest  Level Estimated
Fri 01:14:00 AM 15.8519 122.0933 218° Southwest  Level Estimated
Fri 01:15:00 AM 15.7716 122.0286 218° Southwest  Level Estimated
Fri 01:16:00 AM 15.6912 121.9640 218° Southwest  Level Estimated
Fri 01:17:00 AM 15.6109 121.8993 218° Southwest  Level Estimated
Fri 01:18:00 AM 15.5305 121.8348 218° Southwest  Level Estimated
Fri 01:19:00 AM 15.4501 121.7703 218° Southwest  Level Estimated
Fri 01:20:00 AM 15.3697 121.7058 218° Southwest  Level Estimated
Fri 01:21:00 AM 15.2892 121.6414 218° Southwest  Level Estimated
Fri 01:22:00 AM 15.2088 121.5770 218° Southwest  Level Estimated
Fri 01:23:00 AM 15.1283 121.5127 218° Southwest  Level Estimated
Fri 01:24:00 AM 15.0478 121.4485 218° Southwest  Level Estimated
Fri 01:25:00 AM 14.9673 121.3842 218° Southwest  Level Estimated
Fri 01:26:00 AM 14.8868 121.3201 218° Southwest  Level Estimated
Fri 01:27:00 AM 14.8062 121.2560 218° Southwest  Level Estimated
Fri 01:28:00 AM 14.7257 121.1919 218° Southwest  Level Estimated
Fri 01:29:00 AM 14.6451 121.1279 218° Southwest  Level Estimated
Fri 01:30:00 AM 14.5645 121.0639 218° Southwest  Level Estimated
Fri 01:31:00 AM 14.5086 121.0196 218° Southwest  Level Estimated
Fri 01:32:00 AM 14.5086 121.0196 162° South  Level Estimated
Fri 01:33:00 AM 14.5086 121.0196 162° South  Level Estimated
Fri 01:34:00 AM 14.5086 121.0196 162° South  Level Estimated
Fri 01:35:00 AM 14.5086 121.0196 162° South  Level Estimated
Fri 01:36:00 AM 14.5086 121.0196 162° South  Level Estimated
Fri 01:37:00 AM 14.5086 121.0196 162° South  Level Estimated
Fri 01:38:00 AM 14.5086 121.0196 162° South  Level Estimated
Fri 01:39:00 AM 14.5086 121.0196 162° South  Level Estimated
Fri 01:40:00 AM 14.5086 121.0196 162° South  Level Estimated
Fri 01:41:00 AM 14.5086 121.0196 162° South  Level Estimated
Fri 01:42:00 AM 14.5086 121.0196 162° South  Level Estimated
Fri 01:43:00 AM 14.5086 121.0196 162° South  Level Estimated
Fri 01:44:00 AM 14.5086 121.0196 162° South  Level Estimated
Fri 01:45:00 AM 14.5086 121.0196 162° South  Level Estimated
Fri 01:46:00 AM 14.5086 121.0196 162° South  Level Estimated
Fri 01:47:00 AM 14.5086 121.0196 162° South  Level Estimated
Fri 01:48:00 AM 14.5086 121.0196 162° South  Level Estimated

Login

Don't have an account? Register now (free) for customized features, flight alerts, and more!